createdAt,value
2023-01-13T00:02:53.000Z,2.28
2023-01-13T00:06:01.061Z,1.52
2023-01-13T00:09:09.134Z,1.48
2023-01-13T00:12:16.928Z,0.93
2023-01-13T00:15:26.330Z,0.70
2023-01-13T00:18:34.507Z,0.80
2023-01-13T00:21:42.316Z,0.80
2023-01-13T00:24:50.391Z,0.93
2023-01-13T00:27:58.359Z,1.33
2023-01-13T00:31:08.690Z,0.88
2023-01-13T00:34:16.629Z,0.77
2023-01-13T00:37:24.716Z,0.95
2023-01-13T00:40:32.791Z,1.02
2023-01-13T00:43:40.093Z,1.40
2023-01-13T00:46:49.656Z,1.45
2023-01-13T00:49:57.472Z,0.70
2023-01-13T00:53:05.348Z,0.63
2023-01-13T00:56:16.654Z,0.75
2023-01-13T00:59:24.662Z,1.10
2023-01-13T01:02:33.963Z,0.90
2023-01-13T01:05:42.015Z,0.70
2023-01-13T01:08:49.985Z,0.63
2023-01-13T01:11:57.974Z,0.93
2023-01-13T01:15:09.292Z,0.80
2023-01-13T01:18:18.585Z,0.80
2023-01-13T01:21:27.557Z,0.57
2023-01-13T01:24:35.777Z,0.88
2023-01-13T01:27:43.919Z,1.15
2023-01-13T01:30:54.447Z,1.02
2023-01-13T01:34:03.730Z,1.17
2023-01-13T01:37:11.818Z,0.88
2023-01-13T01:40:20.096Z,0.40
2023-01-13T01:44:06.942Z,0.80
2023-01-13T01:47:17.195Z,0.73
2023-01-13T01:50:26.672Z,0.63
2023-01-13T01:53:34.547Z,0.93
2023-01-13T01:56:42.911Z,0.47
2023-01-13T01:59:50.708Z,0.77
2023-01-13T02:02:58.886Z,0.32
2023-01-13T02:06:08.464Z,0.63
2023-01-13T02:09:16.526Z,0.73
2023-01-13T02:12:30.261Z,1.67
2023-01-13T02:15:41.128Z,0.60
2023-01-13T02:18:54.691Z,0.60
2023-01-13T02:22:17.142Z,0.75
2023-01-13T02:25:48.742Z,0.60
2023-01-13T02:29:25.420Z,1.33
2023-01-13T02:32:36.897Z,0.45
2023-01-13T02:35:48.998Z,0.60
2023-01-13T02:38:58.634Z,0.63
2023-01-13T02:42:25.924Z,0.50
2023-01-13T02:45:35.259Z,0.55
2023-01-13T02:48:45.433Z,0.73
2023-01-13T02:51:54.255Z,2.22
2023-01-13T02:55:04.873Z,0.50
2023-01-13T02:58:14.482Z,0.65
2023-01-13T03:01:22.414Z,0.73
2023-01-13T03:04:51.402Z,0.93
2023-01-13T03:08:09.827Z,0.70
2023-01-13T03:11:18.514Z,0.93
2023-01-13T03:14:31.535Z,0.57
2023-01-13T03:17:41.695Z,0.80
2023-01-13T03:21:03.145Z,0.82
2023-01-13T03:24:14.343Z,1.20
2023-01-13T03:27:25.153Z,2.25
2023-01-13T03:30:34.679Z,0.85
2023-01-13T03:33:45.368Z,3.25
2023-01-13T03:36:55.472Z,0.65
2023-01-13T03:40:05.207Z,1.20
2023-01-13T03:43:33.176Z,1.58
2023-01-13T03:46:44.105Z,0.80
2023-01-13T03:49:54.619Z,0.90
2023-01-13T03:53:05.042Z,1.60
2023-01-13T03:56:15.581Z,2.88
2023-01-13T03:59:25.634Z,1.40
2023-01-13T04:02:41.875Z,1.33
2023-01-13T04:05:51.595Z,2.55
2023-01-13T04:09:04.281Z,1.42
2023-01-13T04:12:14.270Z,2.03
2023-01-13T04:15:23.643Z,0.75
2023-01-13T04:18:32.178Z,1.30
2023-01-13T04:21:40.078Z,2.22
2023-01-13T04:24:49.638Z,2.03
2023-01-13T04:27:57.863Z,2.42
2023-01-13T04:31:06.237Z,1.45
2023-01-13T04:34:14.146Z,1.17
2023-01-13T04:37:22.239Z,1.05
2023-01-13T04:40:31.503Z,1.38
2023-01-13T04:43:39.235Z,1.70
2023-01-13T04:46:47.485Z,1.52
2023-01-13T04:49:55.398Z,4.68
2023-01-13T04:53:03.424Z,1.88
2023-01-13T04:56:12.787Z,1.30
2023-01-13T04:59:20.789Z,1.45
2023-01-13T05:02:28.954Z,2.60
2023-01-13T05:05:37.861Z,2.53
2023-01-13T05:08:45.749Z,2.28
2023-01-13T05:12:12.689Z,2.30
2023-01-13T05:15:38.540Z,3.00
2023-01-13T05:18:46.231Z,3.45
2023-01-13T05:22:12.211Z,2.17
2023-01-13T05:25:22.862Z,2.30
2023-01-13T05:28:34.066Z,2.05
2023-01-13T05:31:41.993Z,1.38
2023-01-13T05:34:49.913Z,2.95
2023-01-13T05:37:58.008Z,2.63
2023-01-13T05:41:23.874Z,2.47
2023-01-13T05:44:33.196Z,3.33
2023-01-13T05:47:41.059Z,3.92
2023-01-13T05:50:49.931Z,2.15
2023-01-13T05:53:59.187Z,2.17
2023-01-13T05:57:07.207Z,3.55
2023-01-13T06:00:18.203Z,2.50
2023-01-13T06:03:26.427Z,3.63
2023-01-13T06:06:34.486Z,2.80
2023-01-13T06:09:42.532Z,3.13
2023-01-13T06:12:50.458Z,2.45
2023-01-13T06:16:00.242Z,2.90
2023-01-13T06:19:09.241Z,2.70
2023-01-13T06:22:18.946Z,3.10
2023-01-13T06:25:31.561Z,2.78
2023-01-13T06:28:39.716Z,5.70
2023-01-13T06:31:49.141Z,2.63
2023-01-13T06:34:59.050Z,2.70
2023-01-13T06:38:08.672Z,2.83
2023-01-13T06:41:16.857Z,3.92
2023-01-13T06:44:23.606Z,2.30
2023-01-13T06:47:33.108Z,3.10
2023-01-13T06:50:42.128Z,4.40
2023-01-13T06:53:50.219Z,2.25
2023-01-13T06:56:58.204Z,6.05
2023-01-13T07:00:07.499Z,3.17
2023-01-13T07:03:17.168Z,2.63
2023-01-13T07:06:25.483Z,4.32
2023-01-13T07:09:33.570Z,2.33
2023-01-13T07:12:55.905Z,2.10
2023-01-13T07:16:05.219Z,2.78
2023-01-13T07:19:15.667Z,3.55
2023-01-13T07:22:24.511Z,3.42
2023-01-13T07:25:32.739Z,3.33
2023-01-13T07:28:40.795Z,3.05
2023-01-13T07:31:50.111Z,2.97
2023-01-13T07:35:04.635Z,2.95
2023-01-13T07:38:12.763Z,2.92
2023-01-13T07:41:37.958Z,5.95
2023-01-13T07:44:45.812Z,4.57
2023-01-13T07:47:54.407Z,2.88
2023-01-13T07:51:04.499Z,3.58
2023-01-13T07:54:12.342Z,3.28
2023-01-13T07:57:20.504Z,4.57
2023-01-13T08:00:28.408Z,8.93
2023-01-13T08:03:36.263Z,3.35
2023-01-13T08:06:45.741Z,2.70
2023-01-13T08:09:53.869Z,3.85
2023-01-13T08:13:20.186Z,3.20
2023-01-13T08:16:28.248Z,2.95
2023-01-13T08:19:36.162Z,3.60
2023-01-13T08:22:45.653Z,2.70
2023-01-13T08:25:53.804Z,3.55
2023-01-13T08:29:01.992Z,4.80
2023-01-13T08:32:10.070Z,3.70
2023-01-13T08:35:18.447Z,3.38
2023-01-13T08:38:27.966Z,3.67
2023-01-13T08:41:53.031Z,3.70
2023-01-13T08:45:00.892Z,4.07
2023-01-13T08:48:09.659Z,4.15
2023-01-13T08:51:17.659Z,4.45
2023-01-13T08:54:26.995Z,3.80
2023-01-13T08:57:35.034Z,6.43
2023-01-13T09:00:44.171Z,4.35
2023-01-13T09:03:52.338Z,2.53
2023-01-13T09:07:02.238Z,3.50
2023-01-13T09:10:12.236Z,4.55
2023-01-13T09:13:21.744Z,3.38
2023-01-13T09:16:29.687Z,2.08
2023-01-13T09:19:37.740Z,3.20
2023-01-13T09:22:45.832Z,3.70
2023-01-13T09:25:55.335Z,4.68
2023-01-13T09:29:03.092Z,5.43
2023-01-13T09:32:12.853Z,3.08
2023-01-13T09:35:20.605Z,4.32
2023-01-13T09:38:28.677Z,3.67
2023-01-13T09:41:59.123Z,4.07
2023-01-13T09:45:08.088Z,3.42
2023-01-13T09:48:17.301Z,4.55
2023-01-13T09:51:28.563Z,2.50
2023-01-13T09:54:39.587Z,4.00
2023-01-13T09:57:48.952Z,3.40
2023-01-13T10:01:09.161Z,5.25
2023-01-13T10:04:17.504Z,4.72
2023-01-13T10:07:25.350Z,4.10
2023-01-13T10:10:37.844Z,5.82
2023-01-13T10:13:46.541Z,2.75
2023-01-13T10:16:59.969Z,5.85
2023-01-13T10:20:18.080Z,2.72
2023-01-13T10:23:44.184Z,5.22
2023-01-13T10:26:55.466Z,5.32
2023-01-13T10:30:17.042Z,4.50
2023-01-13T10:33:28.266Z,2.45
2023-01-13T10:36:36.267Z,2.72
2023-01-13T10:39:45.412Z,6.22
2023-01-13T10:43:06.579Z,6.22
2023-01-13T10:46:16.731Z,3.63
2023-01-13T10:49:28.846Z,7.93
2023-01-13T10:52:38.182Z,4.28
2023-01-13T10:55:51.954Z,8.60
2023-01-13T10:59:18.456Z,4.75
2023-01-13T11:02:29.595Z,2.97
2023-01-13T11:05:37.786Z,6.00
2023-01-13T11:08:47.174Z,2.92
2023-01-13T11:11:56.422Z,4.63
2023-01-13T11:15:08.603Z,8.25
2023-01-13T11:18:20.824Z,3.95
2023-01-13T11:21:29.931Z,5.57
2023-01-13T11:24:40.132Z,5.88
2023-01-13T11:27:52.482Z,3.50
2023-01-13T11:31:05.503Z,5.95
2023-01-13T11:37:24.233Z,5.30
2023-01-13T11:40:35.886Z,4.93
2023-01-13T11:43:46.057Z,6.53
2023-01-13T11:46:54.074Z,3.67
2023-01-13T11:50:03.795Z,4.93
2023-01-13T11:53:19.294Z,6.57
2023-01-13T11:56:36.626Z,5.05
2023-01-13T11:59:58.183Z,5.28
2023-01-13T12:03:25.606Z,6.22
2023-01-13T12:06:36.277Z,8.38
2023-01-13T12:09:56.820Z,9.23
2023-01-13T12:13:08.160Z,5.25
2023-01-13T12:16:21.162Z,3.50
2023-01-13T12:19:30.148Z,4.25
2023-01-13T12:22:39.269Z,3.65
2023-01-13T12:25:50.507Z,3.33
2023-01-13T12:28:59.397Z,5.70
2023-01-13T12:32:08.053Z,3.20
2023-01-13T12:35:25.149Z,2.08
2023-01-13T12:38:36.630Z,6.72
2023-01-13T12:42:01.581Z,2.72
2023-01-13T12:45:22.532Z,3.20
2023-01-13T12:49:18.779Z,3.53
2023-01-13T12:52:26.985Z,5.28
2023-01-13T12:55:36.754Z,5.63
2023-01-13T12:58:44.969Z,3.25
2023-01-13T13:01:53.829Z,9.13
2023-01-13T13:05:23.891Z,4.88
2023-01-13T13:08:45.763Z,9.27
2023-01-13T13:12:12.293Z,8.63
2023-01-13T13:15:23.546Z,6.00
2023-01-13T13:18:31.517Z,4.25
2023-01-13T13:22:13.052Z,3.78
2023-01-13T13:25:23.257Z,2.83
2023-01-13T13:28:35.273Z,3.38
2023-01-13T13:31:55.026Z,4.82
2023-01-13T13:35:23.611Z,3.38
2023-01-13T13:38:59.623Z,3.20
2023-01-13T13:42:30.657Z,6.28
2023-01-13T13:45:57.749Z,4.57
2023-01-13T13:49:05.590Z,4.57
2023-01-13T13:52:19.009Z,3.25
2023-01-13T13:55:28.288Z,4.25
2023-01-13T13:58:37.181Z,5.75
2023-01-13T14:01:46.744Z,3.22
2023-01-13T14:05:08.054Z,3.20
2023-01-13T14:08:17.003Z,3.22
2023-01-13T14:11:27.545Z,3.45
2023-01-13T14:14:35.351Z,3.47
2023-01-13T14:17:45.108Z,2.97
2023-01-13T14:20:54.191Z,3.50
2023-01-13T14:24:05.623Z,2.63
2023-01-13T14:27:16.401Z,4.15
2023-01-13T14:30:24.595Z,3.95
2023-01-13T14:33:36.903Z,3.47
2023-01-13T14:36:47.941Z,4.43
2023-01-13T14:39:56.145Z,3.25
2023-01-13T14:43:04.421Z,6.10
2023-01-13T14:46:12.481Z,4.30
2023-01-13T14:49:25.031Z,4.20
2023-01-13T14:52:34.500Z,3.63
2023-01-13T14:55:42.589Z,3.17
2023-01-13T14:58:50.658Z,5.13
2023-01-13T15:01:58.899Z,2.97
2023-01-13T15:05:42.526Z,3.72
2023-01-13T15:11:59.064Z,2.42
2023-01-13T15:15:08.444Z,2.20
2023-01-13T15:18:16.941Z,3.42
2023-01-13T15:21:26.497Z,1.50
2023-01-13T15:24:34.372Z,3.03
2023-01-13T15:27:42.347Z,2.55
2023-01-13T15:30:50.979Z,2.72
2023-01-13T15:34:00.432Z,1.92
2023-01-13T15:37:11.015Z,2.40
2023-01-13T15:40:20.548Z,4.07
2023-01-13T15:43:45.880Z,1.65
2023-01-13T15:46:53.782Z,1.75
2023-01-13T15:50:01.547Z,3.15
2023-01-13T15:53:14.349Z,3.22
2023-01-13T15:59:31.359Z,3.35
2023-01-13T16:02:39.540Z,1.83
2023-01-13T16:05:47.507Z,2.65
2023-01-13T16:08:56.983Z,2.35
2023-01-13T16:12:05.152Z,1.77
2023-01-13T16:15:14.214Z,1.52
2023-01-13T16:18:24.205Z,3.58
2023-01-13T16:21:32.336Z,2.38
2023-01-13T16:24:41.718Z,3.38
2023-01-13T16:27:49.906Z,3.67
2023-01-13T16:30:57.673Z,1.98
2023-01-13T16:34:05.768Z,1.63
2023-01-13T16:37:18.697Z,3.50
2023-01-13T16:43:39.082Z,2.03
2023-01-13T16:46:47.661Z,4.22
2023-01-13T16:49:55.623Z,3.13
2023-01-13T16:53:03.514Z,2.22
2023-01-13T16:56:20.631Z,1.42
2023-01-13T16:59:28.707Z,2.15
2023-01-13T17:02:36.672Z,3.42
2023-01-13T17:05:46.692Z,2.75
2023-01-13T17:08:54.433Z,4.05
2023-01-13T17:12:03.946Z,2.42
2023-01-13T17:15:13.418Z,2.55
2023-01-13T17:18:21.333Z,3.55
2023-01-13T17:21:29.470Z,2.50
2023-01-13T17:24:37.587Z,4.13
2023-01-13T17:27:47.108Z,2.95
2023-01-13T17:30:55.302Z,2.58
2023-01-13T17:34:03.656Z,2.83
2023-01-13T17:37:13.701Z,1.67
2023-01-13T17:40:21.766Z,2.95
2023-01-13T17:43:31.191Z,1.40
2023-01-13T17:46:40.319Z,2.15
2023-01-13T17:49:48.460Z,1.80
2023-01-13T17:52:56.623Z,2.45
2023-01-13T17:56:04.678Z,2.90
2023-01-13T17:59:14.409Z,1.05
2023-01-13T18:02:22.345Z,1.65
2023-01-13T18:05:30.488Z,1.33
2023-01-13T18:08:38.561Z,1.50
2023-01-13T18:11:47.370Z,1.50
2023-01-13T18:14:56.935Z,2.05
2023-01-13T18:18:05.148Z,2.92
2023-01-13T18:21:35.716Z,1.40
2023-01-13T18:25:03.090Z,2.08
2023-01-13T18:28:11.097Z,1.70
2023-01-13T18:31:20.339Z,3.10
2023-01-13T18:34:28.462Z,2.80
2023-01-13T18:37:38.493Z,2.53
2023-01-13T18:40:46.220Z,2.25
2023-01-13T18:43:53.175Z,4.03
2023-01-13T18:47:02.855Z,3.08
2023-01-13T18:50:13.665Z,1.73
2023-01-13T18:53:21.526Z,1.15
2023-01-13T18:56:31.041Z,1.85
2023-01-13T18:59:39.181Z,1.23
2023-01-13T19:02:50.552Z,3.25
2023-01-13T19:06:02.528Z,3.05
2023-01-13T19:09:11.067Z,2.90
2023-01-13T19:12:25.929Z,2.13
2023-01-13T19:15:33.887Z,2.63
2023-01-13T19:18:43.206Z,1.63
2023-01-13T19:21:51.314Z,1.52
2023-01-13T19:24:59.703Z,1.65
2023-01-13T19:28:07.671Z,1.83
2023-01-13T19:31:17.006Z,1.80
2023-01-13T19:34:26.305Z,1.33
2023-01-13T19:37:36.782Z,1.50
2023-01-13T19:40:44.687Z,2.47
2023-01-13T19:44:09.953Z,1.67
2023-01-13T19:47:17.847Z,2.17
2023-01-13T19:50:27.399Z,2.33
2023-01-13T19:53:35.792Z,2.90
2023-01-13T19:56:44.162Z,2.58
2023-01-13T19:59:53.222Z,2.50
2023-01-13T20:03:06.856Z,1.90
2023-01-13T20:06:16.372Z,1.55
2023-01-13T20:09:24.512Z,2.83
2023-01-13T20:12:32.581Z,2.97
2023-01-13T20:15:40.976Z,1.83
2023-01-13T20:18:50.447Z,1.95
2023-01-13T20:21:59.886Z,3.95
2023-01-13T20:25:08.251Z,3.00
2023-01-13T20:28:16.131Z,1.42
2023-01-13T20:31:24.403Z,2.63
2023-01-13T20:34:32.449Z,2.80
2023-01-13T20:37:42.229Z,2.05
2023-01-13T20:40:52.758Z,2.92
2023-01-13T20:44:00.620Z,2.63
2023-01-13T20:47:08.485Z,2.40
2023-01-13T20:50:16.818Z,2.58
2023-01-13T20:53:25.955Z,4.38
2023-01-13T20:56:34.201Z,1.67
2023-01-13T20:59:42.799Z,1.42
2023-01-13T21:02:50.716Z,1.92
2023-01-13T21:05:58.986Z,2.50
2023-01-13T21:09:08.860Z,3.00
2023-01-13T21:12:34.317Z,2.17
2023-01-13T21:15:46.806Z,3.35
2023-01-13T21:19:10.702Z,2.15
2023-01-13T21:22:18.574Z,2.28
2023-01-13T21:25:28.000Z,1.13
2023-01-13T21:28:36.987Z,2.38
2023-01-13T21:31:44.923Z,1.77
2023-01-13T21:34:52.878Z,1.40
2023-01-13T21:38:01.144Z,2.30
2023-01-13T21:41:14.146Z,1.17
2023-01-13T21:44:39.754Z,2.50
2023-01-13T21:47:50.659Z,1.35
2023-01-13T21:51:00.687Z,1.65
2023-01-13T21:54:08.689Z,2.22
2023-01-13T21:57:18.157Z,2.78
2023-01-13T22:00:26.968Z,2.00
2023-01-13T22:03:55.566Z,2.55
2023-01-13T22:07:06.416Z,2.78
2023-01-13T22:10:15.121Z,2.80
2023-01-13T22:13:42.247Z,1.90
2023-01-13T22:16:50.368Z,2.20
2023-01-13T22:19:58.487Z,2.55
2023-01-13T22:23:06.538Z,1.00
2023-01-13T22:26:14.345Z,5.28
2023-01-13T22:29:23.835Z,1.50
2023-01-13T22:32:32.114Z,2.50
2023-01-13T22:35:40.119Z,2.33
2023-01-13T22:38:48.206Z,3.42
2023-01-13T22:41:56.422Z,2.72
2023-01-13T22:45:07.152Z,4.28
2023-01-13T22:48:14.778Z,2.67
2023-01-13T22:51:23.052Z,1.88
2023-01-13T22:54:30.930Z,1.83
2023-01-13T22:57:47.652Z,2.72
2023-01-13T23:00:57.888Z,2.47
2023-01-13T23:04:06.205Z,1.13
2023-01-13T23:07:13.956Z,2.67
2023-01-13T23:10:22.081Z,1.30
2023-01-13T23:13:30.313Z,2.17
2023-01-13T23:16:40.580Z,2.13
2023-01-13T23:19:48.536Z,2.80
2023-01-13T23:22:56.597Z,3.25
2023-01-13T23:26:04.840Z,2.10
2023-01-13T23:29:13.256Z,2.92
2023-01-13T23:32:22.846Z,1.75
2023-01-13T23:35:31.911Z,2.97
2023-01-13T23:38:39.637Z,1.27
2023-01-13T23:41:47.628Z,1.65
2023-01-13T23:44:55.472Z,1.20
2023-01-13T23:48:05.038Z,1.08
2023-01-13T23:51:13.463Z,0.98
2023-01-13T23:54:21.475Z,3.00
2023-01-13T23:57:29.580Z,2.25
